sensor_id;sensor_type;location;lat;lon;timestamp;P1;durP1;ratioP1;P2;durP2;ratioP2
58908;SDS011;44690;48.154;17.102;2023-03-01T00:00:38;9.75;;;7.40;;
58908;SDS011;44690;48.154;17.102;2023-03-01T00:02:10;13.43;;;8.88;;
58908;SDS011;44690;48.154;17.102;2023-03-01T00:03:43;13.48;;;8.35;;
58908;SDS011;44690;48.154;17.102;2023-03-01T00:05:15;19.35;;;9.73;;
58908;SDS011;44690;48.154;17.102;2023-03-01T00:06:48;15.00;;;10.18;;
58908;SDS011;44690;48.154;17.102;2023-03-01T00:08:25;21.05;;;11.93;;
58908;SDS011;44690;48.154;17.102;2023-03-01T00:10:23;13.35;;;9.32;;
58908;SDS011;44690;48.154;17.102;2023-03-01T00:11:55;20.95;;;10.63;;
58908;SDS011;44690;48.154;17.102;2023-03-01T00:13:30;18.42;;;10.23;;
58908;SDS011;44690;48.154;17.102;2023-03-01T00:15:02;28.52;;;10.05;;
58908;SDS011;44690;48.154;17.102;2023-03-01T00:16:38;12.30;;;8.63;;
58908;SDS011;44690;48.154;17.102;2023-03-01T00:18:12;21.73;;;10.63;;
58908;SDS011;44690;48.154;17.102;2023-03-01T00:19:44;22.98;;;10.45;;
58908;SDS011;44690;48.154;17.102;2023-03-01T00:21:17;13.90;;;8.57;;
58908;SDS011;44690;48.154;17.102;2023-03-01T00:22:50;18.48;;;10.10;;
58908;SDS011;44690;48.154;17.102;2023-03-01T00:24:22;16.23;;;9.18;;
58908;SDS011;44690;48.154;17.102;2023-03-01T00:25:54;15.50;;;9.13;;
58908;SDS011;44690;48.154;17.102;2023-03-01T00:27:27;17.25;;;9.50;;
58908;SDS011;44690;48.154;17.102;2023-03-01T00:28:59;15.50;;;9.07;;
58908;SDS011;44690;48.154;17.102;2023-03-01T00:32:10;13.23;;;8.35;;
58908;SDS011;44690;48.154;17.102;2023-03-01T00:33:43;17.95;;;10.48;;
58908;SDS011;44690;48.154;17.102;2023-03-01T00:35:15;13.45;;;9.48;;
58908;SDS011;44690;48.154;17.102;2023-03-01T00:36:47;25.42;;;12.02;;
58908;SDS011;44690;48.154;17.102;2023-03-01T00:38:22;15.98;;;10.85;;
58908;SDS011;44690;48.154;17.102;2023-03-01T00:39:54;17.25;;;10.20;;
58908;SDS011;44690;48.154;17.102;2023-03-01T00:41:29;24.67;;;10.15;;
58908;SDS011;44690;48.154;17.102;2023-03-01T00:43:02;14.23;;;10.00;;
58908;SDS011;44690;48.154;17.102;2023-03-01T00:44:43;15.70;;;10.25;;
58908;SDS011;44690;48.154;17.102;2023-03-01T00:46:24;12.30;;;7.47;;
58908;SDS011;44690;48.154;17.102;2023-03-01T00:48:00;16.27;;;10.00;;
58908;SDS011;44690;48.154;17.102;2023-03-01T00:49:34;15.57;;;8.20;;
58908;SDS011;44690;48.154;17.102;2023-03-01T00:52:42;18.45;;;10.85;;
58908;SDS011;44690;48.154;17.102;2023-03-01T00:54:15;16.17;;;9.25;;
58908;SDS011;44690;48.154;17.102;2023-03-01T00:55:51;19.40;;;10.27;;
58908;SDS011;44690;48.154;17.102;2023-03-01T00:57:24;19.70;;;10.77;;
58908;SDS011;44690;48.154;17.102;2023-03-01T00:58:57;20.30;;;13.50;;
58908;SDS011;44690;48.154;17.102;2023-03-01T01:00:31;20.63;;;11.05;;
58908;SDS011;44690;48.154;17.102;2023-03-01T01:02:03;17.10;;;10.75;;
58908;SDS011;44690;48.154;17.102;2023-03-01T01:03:35;23.25;;;11.43;;
58908;SDS011;44690;48.154;17.102;2023-03-01T01:05:08;20.27;;;11.53;;
58908;SDS011;44690;48.154;17.102;2023-03-01T01:06:42;18.67;;;11.07;;
58908;SDS011;44690;48.154;17.102;2023-03-01T01:08:19;19.83;;;11.45;;
58908;SDS011;44690;48.154;17.102;2023-03-01T01:09:54;19.70;;;11.25;;
58908;SDS011;44690;48.154;17.102;2023-03-01T01:11:28;15.98;;;11.63;;
58908;SDS011;44690;48.154;17.102;2023-03-01T01:13:02;17.45;;;10.55;;
58908;SDS011;44690;48.154;17.102;2023-03-01T01:14:35;17.23;;;11.52;;
58908;SDS011;44690;48.154;17.102;2023-03-01T01:16:07;20.95;;;13.35;;
58908;SDS011;44690;48.154;17.102;2023-03-01T01:17:41;21.20;;;12.85;;
58908;SDS011;44690;48.154;17.102;2023-03-01T01:19:13;24.00;;;11.15;;
58908;SDS011;44690;48.154;17.102;2023-03-01T01:20:47;19.77;;;11.43;;
58908;SDS011;44690;48.154;17.102;2023-03-01T01:22:19;20.65;;;13.98;;
58908;SDS011;44690;48.154;17.102;2023-03-01T01:23:52;17.08;;;11.30;;
58908;SDS011;44690;48.154;17.102;2023-03-01T01:25:26;18.50;;;13.10;;
58908;SDS011;44690;48.154;17.102;2023-03-01T01:28:30;16.10;;;9.68;;
58908;SDS011;44690;48.154;17.102;2023-03-01T01:30:03;18.55;;;13.00;;
58908;SDS011;44690;48.154;17.102;2023-03-01T01:31:36;26.35;;;15.63;;
58908;SDS011;44690;48.154;17.102;2023-03-01T01:33:13;19.92;;;12.52;;
58908;SDS011;44690;48.154;17.102;2023-03-01T01:34:46;21.98;;;12.98;;
58908;SDS011;44690;48.154;17.102;2023-03-01T01:36:18;31.60;;;12.93;;
58908;SDS011;44690;48.154;17.102;2023-03-01T01:39:23;21.85;;;12.88;;
58908;SDS011;44690;48.154;17.102;2023-03-01T01:40:55;20.60;;;12.75;;
58908;SDS011;44690;48.154;17.102;2023-03-01T01:42:27;19.60;;;12.60;;
58908;SDS011;44690;48.154;17.102;2023-03-01T01:44:17;19.38;;;11.13;;
58908;SDS011;44690;48.154;17.102;2023-03-01T01:45:57;21.67;;;13.98;;
58908;SDS011;44690;48.154;17.102;2023-03-01T01:47:33;21.50;;;11.23;;
58908;SDS011;44690;48.154;17.102;2023-03-01T01:49:07;20.05;;;11.80;;
58908;SDS011;44690;48.154;17.102;2023-03-01T01:50:54;17.60;;;13.82;;
58908;SDS011;44690;48.154;17.102;2023-03-01T01:52:34;20.30;;;13.43;;
58908;SDS011;44690;48.154;17.102;2023-03-01T01:54:16;19.88;;;10.40;;
58908;SDS011;44690;48.154;17.102;2023-03-01T01:55:56;22.08;;;13.75;;
58908;SDS011;44690;48.154;17.102;2023-03-01T01:57:36;24.83;;;14.38;;
58908;SDS011;44690;48.154;17.102;2023-03-01T01:59:10;25.33;;;14.77;;
58908;SDS011;44690;48.154;17.102;2023-03-01T02:00:43;22.00;;;13.73;;
58908;SDS011;44690;48.154;17.102;2023-03-01T02:02:16;21.70;;;14.35;;
58908;SDS011;44690;48.154;17.102;2023-03-01T02:03:48;31.63;;;17.63;;
58908;SDS011;44690;48.154;17.102;2023-03-01T02:05:24;20.65;;;13.27;;
58908;SDS011;44690;48.154;17.102;2023-03-01T02:07:06;39.40;;;19.43;;
58908;SDS011;44690;48.154;17.102;2023-03-01T02:08:46;29.75;;;18.95;;
58908;SDS011;44690;48.154;17.102;2023-03-01T02:10:21;30.27;;;17.08;;
58908;SDS011;44690;48.154;17.102;2023-03-01T02:11:54;28.73;;;18.15;;
58908;SDS011;44690;48.154;17.102;2023-03-01T02:13:26;29.45;;;18.05;;
58908;SDS011;44690;48.154;17.102;2023-03-01T02:17:00;28.00;;;16.85;;
58908;SDS011;44690;48.154;17.102;2023-03-01T02:18:33;33.20;;;18.63;;
58908;SDS011;44690;48.154;17.102;2023-03-01T02:21:46;32.40;;;19.75;;
58908;SDS011;44690;48.154;17.102;2023-03-01T02:23:26;36.05;;;17.48;;
58908;SDS011;44690;48.154;17.102;2023-03-01T02:26:56;27.05;;;14.45;;
58908;SDS011;44690;48.154;17.102;2023-03-01T02:30:12;27.90;;;16.42;;
58908;SDS011;44690;48.154;17.102;2023-03-01T02:31:44;34.00;;;19.23;;
58908;SDS011;44690;48.154;17.102;2023-03-01T02:33:17;33.15;;;16.83;;
58908;SDS011;44690;48.154;17.102;2023-03-01T02:34:49;27.13;;;15.98;;
58908;SDS011;44690;48.154;17.102;2023-03-01T02:36:22;27.30;;;15.60;;
58908;SDS011;44690;48.154;17.102;2023-03-01T02:37:58;18.15;;;13.18;;
58908;SDS011;44690;48.154;17.102;2023-03-01T02:39:37;25.17;;;15.20;;
58908;SDS011;44690;48.154;17.102;2023-03-01T02:41:15;30.48;;;15.07;;
58908;SDS011;44690;48.154;17.102;2023-03-01T02:42:53;25.25;;;15.30;;
58908;SDS011;44690;48.154;17.102;2023-03-01T02:44:27;21.20;;;13.77;;
58908;SDS011;44690;48.154;17.102;2023-03-01T02:46:08;22.13;;;14.43;;
58908;SDS011;44690;48.154;17.102;2023-03-01T02:47:56;24.13;;;12.17;;
58908;SDS011;44690;48.154;17.102;2023-03-01T02:49:32;23.95;;;14.38;;
58908;SDS011;44690;48.154;17.102;2023-03-01T02:51:10;22.67;;;15.57;;
58908;SDS011;44690;48.154;17.102;2023-03-01T02:52:57;24.90;;;15.07;;
58908;SDS011;44690;48.154;17.102;2023-03-01T02:54:36;21.85;;;12.65;;
58908;SDS011;44690;48.154;17.102;2023-03-01T02:56:28;23.93;;;12.63;;
58908;SDS011;44690;48.154;17.102;2023-03-01T02:58:03;23.02;;;12.30;;
58908;SDS011;44690;48.154;17.102;2023-03-01T02:59:38;27.92;;;14.38;;
58908;SDS011;44690;48.154;17.102;2023-03-01T03:01:12;24.48;;;13.55;;
58908;SDS011;44690;48.154;17.102;2023-03-01T03:02:50;17.75;;;10.98;;
58908;SDS011;44690;48.154;17.102;2023-03-01T03:04:26;21.42;;;14.13;;
58908;SDS011;44690;48.154;17.102;2023-03-01T03:08:03;22.90;;;13.07;;
58908;SDS011;44690;48.154;17.102;2023-03-01T03:09:50;25.40;;;12.85;;
58908;SDS011;44690;48.154;17.102;2023-03-01T03:11:30;24.88;;;13.98;;
58908;SDS011;44690;48.154;17.102;2023-03-01T03:13:05;27.65;;;15.05;;
58908;SDS011;44690;48.154;17.102;2023-03-01T03:14:39;23.35;;;13.13;;
58908;SDS011;44690;48.154;17.102;2023-03-01T03:16:11;20.17;;;13.45;;
58908;SDS011;44690;48.154;17.102;2023-03-01T03:17:44;19.80;;;12.15;;
58908;SDS011;44690;48.154;17.102;2023-03-01T03:19:19;19.25;;;12.38;;
58908;SDS011;44690;48.154;17.102;2023-03-01T03:20:51;24.08;;;12.23;;
58908;SDS011;44690;48.154;17.102;2023-03-01T03:22:25;22.27;;;12.98;;
58908;SDS011;44690;48.154;17.102;2023-03-01T03:23:58;20.38;;;12.25;;
58908;SDS011;44690;48.154;17.102;2023-03-01T03:25:31;18.90;;;12.77;;
58908;SDS011;44690;48.154;17.102;2023-03-01T03:27:04;25.50;;;12.90;;
58908;SDS011;44690;48.154;17.102;2023-03-01T03:28:37;26.60;;;14.90;;
58908;SDS011;44690;48.154;17.102;2023-03-01T03:30:13;22.92;;;14.02;;
58908;SDS011;44690;48.154;17.102;2023-03-01T03:31:50;22.65;;;13.00;;
58908;SDS011;44690;48.154;17.102;2023-03-01T03:33:22;22.38;;;13.43;;
58908;SDS011;44690;48.154;17.102;2023-03-01T03:34:54;18.65;;;12.00;;
58908;SDS011;44690;48.154;17.102;2023-03-01T03:36:27;24.15;;;11.88;;
58908;SDS011;44690;48.154;17.102;2023-03-01T03:38:00;23.42;;;14.20;;
58908;SDS011;44690;48.154;17.102;2023-03-01T03:39:35;20.10;;;12.75;;
58908;SDS011;44690;48.154;17.102;2023-03-01T03:41:07;31.17;;;13.63;;
58908;SDS011;44690;48.154;17.102;2023-03-01T03:42:40;23.83;;;12.93;;
58908;SDS011;44690;48.154;17.102;2023-03-01T03:44:16;27.95;;;13.60;;
58908;SDS011;44690;48.154;17.102;2023-03-01T03:46:26;17.27;;;13.18;;
58908;SDS011;44690;48.154;17.102;2023-03-01T03:47:59;34.95;;;15.07;;
58908;SDS011;44690;48.154;17.102;2023-03-01T03:49:32;29.55;;;15.02;;
58908;SDS011;44690;48.154;17.102;2023-03-01T03:51:05;25.88;;;13.52;;
58908;SDS011;44690;48.154;17.102;2023-03-01T03:52:37;19.52;;;12.70;;
58908;SDS011;44690;48.154;17.102;2023-03-01T03:54:10;20.13;;;11.82;;
58908;SDS011;44690;48.154;17.102;2023-03-01T03:55:42;20.92;;;12.90;;
58908;SDS011;44690;48.154;17.102;2023-03-01T03:57:16;20.88;;;13.90;;
58908;SDS011;44690;48.154;17.102;2023-03-01T03:58:48;16.88;;;11.73;;
58908;SDS011;44690;48.154;17.102;2023-03-01T04:00:21;18.67;;;10.73;;
58908;SDS011;44690;48.154;17.102;2023-03-01T04:02:09;19.23;;;13.27;;
58908;SDS011;44690;48.154;17.102;2023-03-01T04:04:16;22.02;;;11.65;;
58908;SDS011;44690;48.154;17.102;2023-03-01T04:05:51;27.40;;;12.88;;
58908;SDS011;44690;48.154;17.102;2023-03-01T04:07:49;22.92;;;13.80;;
58908;SDS011;44690;48.154;17.102;2023-03-01T04:11:05;18.08;;;11.98;;
58908;SDS011;44690;48.154;17.102;2023-03-01T04:12:55;22.15;;;12.85;;
58908;SDS011;44690;48.154;17.102;2023-03-01T04:14:28;21.48;;;12.07;;
58908;SDS011;44690;48.154;17.102;2023-03-01T04:16:01;19.75;;;11.23;;
58908;SDS011;44690;48.154;17.102;2023-03-01T04:17:41;18.35;;;12.60;;
58908;SDS011;44690;48.154;17.102;2023-03-01T04:19:35;31.83;;;13.38;;
58908;SDS011;44690;48.154;17.102;2023-03-01T04:21:08;24.95;;;11.85;;
58908;SDS011;44690;48.154;17.102;2023-03-01T04:23:26;23.02;;;13.02;;
58908;SDS011;44690;48.154;17.102;2023-03-01T04:26:02;18.65;;;13.30;;
58908;SDS011;44690;48.154;17.102;2023-03-01T04:27:35;19.67;;;12.57;;
58908;SDS011;44690;48.154;17.102;2023-03-01T04:29:08;26.05;;;11.63;;
58908;SDS011;44690;48.154;17.102;2023-03-01T04:30:40;21.15;;;12.18;;
58908;SDS011;44690;48.154;17.102;2023-03-01T04:32:13;25.80;;;11.80;;
58908;SDS011;44690;48.154;17.102;2023-03-01T04:33:58;25.48;;;13.65;;
58908;SDS011;44690;48.154;17.102;2023-03-01T04:35:32;29.38;;;11.40;;
58908;SDS011;44690;48.154;17.102;2023-03-01T04:38:38;17.77;;;11.38;;
58908;SDS011;44690;48.154;17.102;2023-03-01T04:40:10;23.27;;;11.60;;
58908;SDS011;44690;48.154;17.102;2023-03-01T04:41:48;20.90;;;10.25;;
58908;SDS011;44690;48.154;17.102;2023-03-01T04:43:20;35.42;;;13.93;;
58908;SDS011;44690;48.154;17.102;2023-03-01T04:44:52;18.65;;;12.65;;
58908;SDS011;44690;48.154;17.102;2023-03-01T04:46:24;18.48;;;11.88;;
58908;SDS011;44690;48.154;17.102;2023-03-01T04:47:57;39.13;;;13.00;;
58908;SDS011;44690;48.154;17.102;2023-03-01T04:49:29;21.73;;;13.07;;
58908;SDS011;44690;48.154;17.102;2023-03-01T04:51:02;20.83;;;11.27;;
58908;SDS011;44690;48.154;17.102;2023-03-01T04:52:36;21.75;;;11.85;;
58908;SDS011;44690;48.154;17.102;2023-03-01T04:54:08;15.18;;;9.57;;
58908;SDS011;44690;48.154;17.102;2023-03-01T04:55:42;20.17;;;11.65;;
58908;SDS011;44690;48.154;17.102;2023-03-01T04:57:14;26.95;;;13.77;;
58908;SDS011;44690;48.154;17.102;2023-03-01T04:58:46;13.35;;;9.93;;
58908;SDS011;44690;48.154;17.102;2023-03-01T05:00:18;20.15;;;11.00;;
58908;SDS011;44690;48.154;17.102;2023-03-01T05:02:03;22.40;;;11.85;;
58908;SDS011;44690;48.154;17.102;2023-03-01T05:03:35;20.38;;;12.15;;
58908;SDS011;44690;48.154;17.102;2023-03-01T05:05:07;25.45;;;14.13;;
58908;SDS011;44690;48.154;17.102;2023-03-01T05:06:39;20.83;;;13.23;;
58908;SDS011;44690;48.154;17.102;2023-03-01T05:08:12;23.83;;;15.93;;
58908;SDS011;44690;48.154;17.102;2023-03-01T05:09:49;26.63;;;11.95;;
58908;SDS011;44690;48.154;17.102;2023-03-01T05:11:21;20.17;;;12.23;;
58908;SDS011;44690;48.154;17.102;2023-03-01T05:12:53;22.30;;;12.67;;
58908;SDS011;44690;48.154;17.102;2023-03-01T05:14:25;21.67;;;12.55;;
58908;SDS011;44690;48.154;17.102;2023-03-01T05:16:00;28.02;;;13.55;;
58908;SDS011;44690;48.154;17.102;2023-03-01T05:17:33;22.77;;;13.40;;
58908;SDS011;44690;48.154;17.102;2023-03-01T05:19:06;21.23;;;14.27;;
58908;SDS011;44690;48.154;17.102;2023-03-01T05:21:13;23.00;;;14.70;;
58908;SDS011;44690;48.154;17.102;2023-03-01T05:22:49;29.20;;;16.17;;
58908;SDS011;44690;48.154;17.102;2023-03-01T05:24:22;22.15;;;13.13;;
58908;SDS011;44690;48.154;17.102;2023-03-01T05:25:57;24.00;;;14.77;;
58908;SDS011;44690;48.154;17.102;2023-03-01T05:27:31;22.95;;;13.30;;
58908;SDS011;44690;48.154;17.102;2023-03-01T05:29:03;22.23;;;13.23;;
58908;SDS011;44690;48.154;17.102;2023-03-01T05:30:35;22.83;;;12.52;;
58908;SDS011;44690;48.154;17.102;2023-03-01T05:32:07;20.98;;;11.50;;
58908;SDS011;44690;48.154;17.102;2023-03-01T05:35:13;16.35;;;11.23;;
58908;SDS011;44690;48.154;17.102;2023-03-01T05:36:47;23.42;;;12.50;;
58908;SDS011;44690;48.154;17.102;2023-03-01T05:38:19;28.60;;;12.63;;
58908;SDS011;44690;48.154;17.102;2023-03-01T05:40:04;22.67;;;11.27;;
58908;SDS011;44690;48.154;17.102;2023-03-01T05:41:37;17.17;;;11.18;;
58908;SDS011;44690;48.154;17.102;2023-03-01T05:43:09;19.23;;;10.73;;
58908;SDS011;44690;48.154;17.102;2023-03-01T05:44:42;23.00;;;11.23;;
58908;SDS011;44690;48.154;17.102;2023-03-01T05:46:14;15.75;;;10.45;;
58908;SDS011;44690;48.154;17.102;2023-03-01T05:47:47;20.17;;;12.40;;
58908;SDS011;44690;48.154;17.102;2023-03-01T05:49:20;22.00;;;13.65;;
58908;SDS011;44690;48.154;17.102;2023-03-01T05:50:57;19.88;;;12.68;;
58908;SDS011;44690;48.154;17.102;2023-03-01T05:52:33;18.08;;;11.43;;
58908;SDS011;44690;48.154;17.102;2023-03-01T05:54:51;22.50;;;13.50;;
58908;SDS011;44690;48.154;17.102;2023-03-01T05:56:23;22.13;;;11.60;;
58908;SDS011;44690;48.154;17.102;2023-03-01T05:57:57;21.60;;;10.88;;
58908;SDS011;44690;48.154;17.102;2023-03-01T05:59:30;21.52;;;12.90;;
58908;SDS011;44690;48.154;17.102;2023-03-01T06:01:03;24.35;;;12.40;;
58908;SDS011;44690;48.154;17.102;2023-03-01T06:02:35;33.78;;;12.38;;
58908;SDS011;44690;48.154;17.102;2023-03-01T06:04:07;18.65;;;12.50;;
58908;SDS011;44690;48.154;17.102;2023-03-01T06:05:40;22.48;;;13.38;;
58908;SDS011;44690;48.154;17.102;2023-03-01T06:07:13;19.60;;;14.25;;
58908;SDS011;44690;48.154;17.102;2023-03-01T06:08:45;25.15;;;12.68;;
58908;SDS011;44690;48.154;17.102;2023-03-01T06:10:17;23.73;;;14.90;;
58908;SDS011;44690;48.154;17.102;2023-03-01T06:11:51;19.25;;;12.30;;
58908;SDS011;44690;48.154;17.102;2023-03-01T06:13:23;38.05;;;14.88;;
58908;SDS011;44690;48.154;17.102;2023-03-01T06:14:56;23.42;;;13.25;;
58908;SDS011;44690;48.154;17.102;2023-03-01T06:16:28;19.92;;;12.88;;
58908;SDS011;44690;48.154;17.102;2023-03-01T06:18:00;25.05;;;13.18;;
58908;SDS011;44690;48.154;17.102;2023-03-01T06:19:33;30.42;;;15.18;;
58908;SDS011;44690;48.154;17.102;2023-03-01T06:21:21;25.40;;;14.68;;
58908;SDS011;44690;48.154;17.102;2023-03-01T06:22:53;28.52;;;15.57;;
58908;SDS011;44690;48.154;17.102;2023-03-01T06:24:26;25.92;;;14.43;;
58908;SDS011;44690;48.154;17.102;2023-03-01T06:26:04;37.45;;;15.70;;
58908;SDS011;44690;48.154;17.102;2023-03-01T06:27:37;22.70;;;14.48;;
58908;SDS011;44690;48.154;17.102;2023-03-01T06:29:10;27.40;;;14.25;;
58908;SDS011;44690;48.154;17.102;2023-03-01T06:30:42;33.97;;;16.50;;
58908;SDS011;44690;48.154;17.102;2023-03-01T06:32:14;26.90;;;13.88;;
58908;SDS011;44690;48.154;17.102;2023-03-01T06:33:46;22.42;;;12.68;;
58908;SDS011;44690;48.154;17.102;2023-03-01T06:35:19;27.58;;;15.45;;
58908;SDS011;44690;48.154;17.102;2023-03-01T06:36:51;29.98;;;15.55;;
58908;SDS011;44690;48.154;17.102;2023-03-01T06:38:24;37.63;;;16.83;;
58908;SDS011;44690;48.154;17.102;2023-03-01T06:39:56;30.60;;;15.30;;
58908;SDS011;44690;48.154;17.102;2023-03-01T06:41:28;20.67;;;14.40;;
58908;SDS011;44690;48.154;17.102;2023-03-01T06:43:01;25.75;;;16.67;;
58908;SDS011;44690;48.154;17.102;2023-03-01T06:44:33;23.15;;;14.43;;
58908;SDS011;44690;48.154;17.102;2023-03-01T06:46:06;20.67;;;12.65;;
58908;SDS011;44690;48.154;17.102;2023-03-01T06:47:41;17.67;;;14.15;;
58908;SDS011;44690;48.154;17.102;2023-03-01T06:49:13;29.65;;;16.73;;
58908;SDS011;44690;48.154;17.102;2023-03-01T06:50:47;28.73;;;14.95;;
58908;SDS011;44690;48.154;17.102;2023-03-01T06:52:20;30.42;;;15.38;;
58908;SDS011;44690;48.154;17.102;2023-03-01T06:53:52;30.50;;;15.50;;
58908;SDS011;44690;48.154;17.102;2023-03-01T06:55:24;31.58;;;15.82;;
58908;SDS011;44690;48.154;17.102;2023-03-01T06:56:56;42.72;;;17.70;;
58908;SDS011;44690;48.154;17.102;2023-03-01T06:58:28;45.17;;;17.30;;
58908;SDS011;44690;48.154;17.102;2023-03-01T07:00:01;30.73;;;18.88;;
58908;SDS011;44690;48.154;17.102;2023-03-01T07:01:34;32.95;;;19.45;;
58908;SDS011;44690;48.154;17.102;2023-03-01T07:03:06;41.00;;;19.75;;
58908;SDS011;44690;48.154;17.102;2023-03-01T07:04:38;24.88;;;17.95;;
58908;SDS011;44690;48.154;17.102;2023-03-01T07:06:11;30.63;;;20.98;;
58908;SDS011;44690;48.154;17.102;2023-03-01T07:07:43;38.22;;;20.42;;
58908;SDS011;44690;48.154;17.102;2023-03-01T07:09:15;38.70;;;17.13;;
58908;SDS011;44690;48.154;17.102;2023-03-01T07:10:55;31.92;;;17.05;;
58908;SDS011;44690;48.154;17.102;2023-03-01T07:12:28;33.83;;;17.65;;
58908;SDS011;44690;48.154;17.102;2023-03-01T07:14:00;36.17;;;17.88;;
58908;SDS011;44690;48.154;17.102;2023-03-01T07:15:32;30.15;;;18.27;;
58908;SDS011;44690;48.154;17.102;2023-03-01T07:17:04;40.43;;;20.30;;
58908;SDS011;44690;48.154;17.102;2023-03-01T07:18:37;27.65;;;17.80;;
58908;SDS011;44690;48.154;17.102;2023-03-01T07:20:09;27.37;;;16.43;;
58908;SDS011;44690;48.154;17.102;2023-03-01T07:23:36;29.83;;;17.77;;
58908;SDS011;44690;48.154;17.102;2023-03-01T07:25:09;37.78;;;18.30;;
58908;SDS011;44690;48.154;17.102;2023-03-01T07:26:42;47.40;;;19.00;;
58908;SDS011;44690;48.154;17.102;2023-03-01T07:28:14;32.63;;;18.92;;
58908;SDS011;44690;48.154;17.102;2023-03-01T07:29:46;37.27;;;21.70;;
58908;SDS011;44690;48.154;17.102;2023-03-01T07:31:18;46.30;;;21.38;;
58908;SDS011;44690;48.154;17.102;2023-03-01T07:32:50;38.92;;;19.63;;
58908;SDS011;44690;48.154;17.102;2023-03-01T07:34:26;28.77;;;16.13;;
58908;SDS011;44690;48.154;17.102;2023-03-01T07:35:58;27.40;;;15.00;;
58908;SDS011;44690;48.154;17.102;2023-03-01T07:37:32;26.92;;;15.68;;
58908;SDS011;44690;48.154;17.102;2023-03-01T07:39:04;28.23;;;16.02;;
58908;SDS011;44690;48.154;17.102;2023-03-01T07:40:36;35.80;;;15.25;;
58908;SDS011;44690;48.154;17.102;2023-03-01T07:42:09;26.38;;;15.07;;
58908;SDS011;44690;48.154;17.102;2023-03-01T07:43:41;27.48;;;13.68;;
58908;SDS011;44690;48.154;17.102;2023-03-01T07:45:13;25.23;;;15.43;;
58908;SDS011;44690;48.154;17.102;2023-03-01T07:46:45;21.52;;;15.02;;
58908;SDS011;44690;48.154;17.102;2023-03-01T07:48:17;25.08;;;17.38;;
58908;SDS011;44690;48.154;17.102;2023-03-01T07:49:50;28.77;;;15.35;;
58908;SDS011;44690;48.154;17.102;2023-03-01T07:51:28;25.25;;;15.05;;
58908;SDS011;44690;48.154;17.102;2023-03-01T07:53:01;30.63;;;14.88;;
58908;SDS011;44690;48.154;17.102;2023-03-01T07:54:34;23.13;;;14.80;;
58908;SDS011;44690;48.154;17.102;2023-03-01T07:56:07;31.02;;;13.30;;
58908;SDS011;44690;48.154;17.102;2023-03-01T07:57:47;19.60;;;12.30;;
58908;SDS011;44690;48.154;17.102;2023-03-01T07:59:47;21.30;;;12.88;;
58908;SDS011;44690;48.154;17.102;2023-03-01T08:02:03;17.35;;;12.98;;
58908;SDS011;44690;48.154;17.102;2023-03-01T08:04:09;20.55;;;12.68;;
58908;SDS011;44690;48.154;17.102;2023-03-01T08:05:43;20.33;;;11.43;;
58908;SDS011;44690;48.154;17.102;2023-03-01T08:07:59;28.90;;;13.02;;
58908;SDS011;44690;48.154;17.102;2023-03-01T08:09:34;18.23;;;12.45;;
58908;SDS011;44690;48.154;17.102;2023-03-01T08:11:09;20.48;;;12.77;;
58908;SDS011;44690;48.154;17.102;2023-03-01T08:12:43;22.13;;;13.95;;
58908;SDS011;44690;48.154;17.102;2023-03-01T08:14:15;18.83;;;11.68;;
58908;SDS011;44690;48.154;17.102;2023-03-01T08:15:47;20.88;;;12.38;;
58908;SDS011;44690;48.154;17.102;2023-03-01T08:17:20;25.08;;;12.80;;
58908;SDS011;44690;48.154;17.102;2023-03-01T08:18:53;22.02;;;12.93;;
58908;SDS011;44690;48.154;17.102;2023-03-01T08:20:28;27.35;;;14.43;;
58908;SDS011;44690;48.154;17.102;2023-03-01T08:22:07;24.00;;;13.27;;
58908;SDS011;44690;48.154;17.102;2023-03-01T08:24:07;26.05;;;14.65;;
58908;SDS011;44690;48.154;17.102;2023-03-01T08:25:41;20.58;;;13.35;;
58908;SDS011;44690;48.154;17.102;2023-03-01T08:27:14;27.70;;;16.08;;
58908;SDS011;44690;48.154;17.102;2023-03-01T08:28:47;25.70;;;13.70;;
58908;SDS011;44690;48.154;17.102;2023-03-01T08:31:22;24.98;;;15.15;;
58908;SDS011;44690;48.154;17.102;2023-03-01T08:32:57;26.90;;;16.75;;
58908;SDS011;44690;48.154;17.102;2023-03-01T08:34:32;25.60;;;12.88;;
58908;SDS011;44690;48.154;17.102;2023-03-01T08:36:13;24.15;;;12.23;;
58908;SDS011;44690;48.154;17.102;2023-03-01T08:38:08;25.38;;;13.90;;
58908;SDS011;44690;48.154;17.102;2023-03-01T08:40:00;21.65;;;11.50;;
58908;SDS011;44690;48.154;17.102;2023-03-01T08:41:37;19.48;;;13.10;;
58908;SDS011;44690;48.154;17.102;2023-03-01T08:43:43;18.73;;;12.88;;
58908;SDS011;44690;48.154;17.102;2023-03-01T08:45:51;21.25;;;12.23;;
58908;SDS011;44690;48.154;17.102;2023-03-01T08:48:21;23.02;;;12.50;;
58908;SDS011;44690;48.154;17.102;2023-03-01T08:51:16;19.63;;;12.75;;
58908;SDS011;44690;48.154;17.102;2023-03-01T08:54:21;26.50;;;13.38;;
58908;SDS011;44690;48.154;17.102;2023-03-01T08:56:15;21.52;;;13.52;;
58908;SDS011;44690;48.154;17.102;2023-03-01T09:01:08;24.38;;;14.80;;
58908;SDS011;44690;48.154;17.102;2023-03-01T09:02:43;17.92;;;12.35;;
58908;SDS011;44690;48.154;17.102;2023-03-01T09:05:16;20.65;;;12.27;;
58908;SDS011;44690;48.154;17.102;2023-03-01T09:09:56;28.33;;;13.13;;
58908;SDS011;44690;48.154;17.102;2023-03-01T09:12:19;32.65;;;15.63;;
58908;SDS011;44690;48.154;17.102;2023-03-01T09:14:39;25.45;;;12.52;;
58908;SDS011;44690;48.154;17.102;2023-03-01T09:16:58;17.35;;;11.45;;
58908;SDS011;44690;48.154;17.102;2023-03-01T09:18:36;26.63;;;11.73;;
58908;SDS011;44690;48.154;17.102;2023-03-01T09:21:41;23.63;;;13.80;;
58908;SDS011;44690;48.154;17.102;2023-03-01T09:24:12;20.45;;;12.10;;
58908;SDS011;44690;48.154;17.102;2023-03-01T09:25:47;19.20;;;11.85;;
58908;SDS011;44690;48.154;17.102;2023-03-01T09:28:17;31.83;;;12.55;;
58908;SDS011;44690;48.154;17.102;2023-03-01T09:30:37;19.13;;;12.18;;
58908;SDS011;44690;48.154;17.102;2023-03-01T09:32:38;24.77;;;14.05;;
58908;SDS011;44690;48.154;17.102;2023-03-01T09:34:35;23.60;;;13.38;;
58908;SDS011;44690;48.154;17.102;2023-03-01T09:36:41;15.82;;;10.90;;
58908;SDS011;44690;48.154;17.102;2023-03-01T09:38:23;19.50;;;12.15;;
58908;SDS011;44690;48.154;17.102;2023-03-01T09:40:27;21.55;;;12.48;;
58908;SDS011;44690;48.154;17.102;2023-03-01T09:43:00;18.08;;;11.15;;
58908;SDS011;44690;48.154;17.102;2023-03-01T09:45:34;16.38;;;11.02;;
58908;SDS011;44690;48.154;17.102;2023-03-01T09:47:45;20.20;;;11.02;;
58908;SDS011;44690;48.154;17.102;2023-03-01T09:50:18;22.52;;;12.05;;
58908;SDS011;44690;48.154;17.102;2023-03-01T09:54:53;18.42;;;11.32;;
58908;SDS011;44690;48.154;17.102;2023-03-01T09:58:47;15.50;;;10.75;;
58908;SDS011;44690;48.154;17.102;2023-03-01T10:00:35;17.70;;;11.35;;
58908;SDS011;44690;48.154;17.102;2023-03-01T10:02:52;20.15;;;11.55;;
58908;SDS011;44690;48.154;17.102;2023-03-01T10:06:26;16.98;;;10.05;;
58908;SDS011;44690;48.154;17.102;2023-03-01T10:09:34;21.50;;;11.77;;